Pflugerville, Texas
Current Conditions -  °F | °C
As of 9:15 AM on Friday 31 Oct 2014 (Local Time) from KEDC Reporting Station
Clear Clear  
Wind Chill: 59°   Ceiling: Unl
Heat Index: 59°   Visibility: 10mi
Dew Point: 48°   Wind: 14mph
Humidity: 67%   Direction: 360°N
Pressure: 30.26"   Gusts: 17mph
Location:  30.44°N, 97.62°W
Report Text: KEDC 311415Z AUTO 36012G15KT 10SM CLR 15/09 A3026 RMK AO2
Loading
Personal Weather Stations






























Interactive Weather Map New forecast layout! Learn more

10-Day Weather Forecast

Advertisements
Track Severe Weather on mobile